Time;durP1;ratioP1;P1;durP2;ratioP2;P2;SDS_P1;SDS_P2;PMS_P1;PMS_P2;Temp;Humidity;BMP_temperature;BMP_pressure;BME280_temperature;BME280_humidity;BME280_pressure;Samples;Min_cycle;Max_cycle;Signal;HPM_P1;HPM_P2
2021/05/07 00:01:32;;;;;;;17.50;8.53;;;;;;;6.38;66.17;94019.05;1805418;79;21123;-52
2021/05/07 00:04:02;;;;;;;16.42;7.03;;;;;;;6.33;66.28;94015.51;1787193;80;21142;-53
2021/05/07 00:06:30;;;;;;;20.40;15.08;;;;;;;6.28;66.44;94009.98;1805480;79;21483;-52
2021/05/07 00:09:03;;;;;;;10.90;8.05;;;;;;;6.27;66.58;94013.14;1787259;80;21051;-52
2021/05/07 00:11:33;;;;;;;17.32;8.85;;;;;;;6.31;66.40;94020.65;1805668;79;21213;-53
2021/05/07 00:14:01;;;;;;;12.80;8.85;;;;;;;6.27;66.56;94004.95;1787195;80;21165;-52
2021/05/07 00:16:29;;;;;;;18.40;9.33;;;;;;;6.19;66.81;94011.23;1805468;79;21484;-53
2021/05/07 00:18:58;;;;;;;25.20;9.00;;;;;;;6.16;66.94;94008.01;1787219;80;21095;-52
2021/05/07 00:21:28;;;;;;;18.10;8.70;;;;;;;6.12;67.28;94009.34;1803293;79;21083;-52
2021/05/07 00:23:56;;;;;;;11.93;7.53;;;;;;;6.10;67.35;94002.16;1819452;78;21352;-54
2021/05/07 00:26:24;;;;;;;19.20;8.15;;;;;;;6.12;67.47;93999.78;1787209;80;21095;-52
2021/05/07 00:28:52;;;;;;;14.35;7.20;;;;;;;6.16;67.43;94004.53;1787256;80;21111;-52
2021/05/07 00:31:21;;;;;;;16.25;7.67;;;;;;;6.14;67.15;93983.72;1787270;80;21177;-53
2021/05/07 00:33:48;;;;;;;19.50;7.97;;;;;;;6.11;67.18;93979.11;1787251;80;21086;-53
2021/05/07 00:36:16;;;;;;;16.32;9.05;;;;;;;6.11;67.14;93985.94;1787245;80;21204;-51
2021/05/07 00:38:45;;;;;;;10.80;7.72;;;;;;;6.06;67.23;93991.37;1787099;80;21228;-52
2021/05/07 00:41:13;;;;;;;15.68;8.10;;;;;;;5.98;67.47;93996.11;1783593;80;21127;-52
2021/05/07 00:43:41;;;;;;;12.10;7.92;;;;;;;5.90;67.70;93996.14;1781512;80;21171;-54
2021/05/07 00:46:09;;;;;;;9.25;6.53;;;;;;;5.88;67.75;93998.54;1781428;79;21064;-52
2021/05/07 00:48:39;;;;;;;9.20;5.72;;;;;;;5.83;67.72;94002.56;1781380;80;21199;-52
2021/05/07 00:51:07;;;;;;;9.80;5.87;;;;;;;5.77;67.65;94006.27;1751342;80;21103;-53
2021/05/07 00:53:35;;;;;;;9.98;5.60;;;;;;;5.72;67.66;93991.77;1781418;80;21134;-51
2021/05/07 00:56:04;;;;;;;9.83;6.12;;;;;;;5.74;67.66;93988.78;1781498;80;21143;-51
2021/05/07 00:58:32;;;;;;;10.43;6.12;;;;;;;5.78;67.75;93981.28;1781427;80;21195;-51
2021/05/07 01:01:00;;;;;;;8.30;5.60;;;;;;;5.81;67.70;93979.66;1750242;80;21288;-52
2021/05/07 01:03:29;;;;;;;9.00;5.62;;;;;;;5.81;67.57;93980.41;1781497;80;21100;-52
2021/05/07 01:05:58;;;;;;;8.38;5.75;;;;;;;5.79;67.57;93969.78;1781513;79;21163;-52
2021/05/07 01:08:26;;;;;;;10.98;7.80;;;;;;;5.78;67.43;93962.77;1781580;80;21084;-53
2021/05/07 01:10:56;;;;;;;15.32;8.28;;;;;;;5.76;67.39;93970.63;1781578;80;21063;-52
2021/05/07 01:13:24;;;;;;;12.82;7.72;;;;;;;5.63;67.77;93963.02;1781601;80;21210;-51
2021/05/07 01:15:54;;;;;;;12.88;7.92;;;;;;;5.50;68.31;93960.85;1780732;80;21183;-54
2021/05/07 01:18:26;;;;;;;10.20;7.45;;;;;;;5.42;68.95;93970.45;1781583;80;21147;-53
2021/05/07 01:20:54;;;;;;;9.08;5.87;;;;;;;5.43;69.23;93963.80;1781526;80;21142;-51
2021/05/07 01:23:22;;;;;;;13.18;9.68;;;;;;;5.43;69.26;93970.61;1781554;80;21143;-51
2021/05/07 01:25:50;;;;;;;9.70;6.03;;;;;;;5.40;69.33;93968.76;1781544;80;21456;-52
2021/05/07 01:28:18;;;;;;;8.50;5.85;;;;;;;5.42;69.13;93966.36;1781512;80;21087;-54
2021/05/07 01:30:49;;;;;;;6.35;5.28;;;;;;;5.37;69.05;93970.38;1781513;80;21056;-51
2021/05/07 01:33:27;;;;;;;6.12;5.53;;;;;;;5.31;69.08;93969.39;1780742;80;21088;-52
2021/05/07 01:35:56;;;;;;;9.48;5.83;;;;;;;5.28;69.13;93972.20;1781549;80;21124;-51
2021/05/07 01:38:24;;;;;;;13.13;5.75;;;;;;;5.25;69.23;93976.55;1781545;80;21468;-53
2021/05/07 01:40:52;;;;;;;8.65;6.33;;;;;;;5.23;69.33;93975.47;1781278;80;21864;-53
2021/05/07 01:43:26;;;;;;;7.25;5.67;;;;;;;5.21;69.53;93975.13;1781146;80;21551;-52
2021/05/07 01:45:56;;;;;;;9.03;6.22;;;;;;;5.23;69.78;93971.96;1781353;80;21083;-52
2021/05/07 01:48:24;;;;;;;11.50;6.78;;;;;;;5.25;70.04;93979.88;1781621;80;21559;-51
2021/05/07 01:50:53;;;;;;;8.58;6.85;;;;;;;5.31;69.92;93980.88;1781530;80;21376;-52
2021/05/07 01:53:22;;;;;;;6.17;5.58;;;;;;;5.34;69.89;93978.06;1781277;79;21155;-53
2021/05/07 01:55:51;;;;;;;10.35;7.35;;;;;;;5.42;69.81;93975.91;1781502;80;21083;-51
2021/05/07 01:58:26;;;;;;;12.90;7.60;;;;;;;5.38;69.87;93965.70;1779638;80;21071;-51
2021/05/07 02:00:57;;;;;;;10.08;5.30;;;;;;;5.32;69.87;93959.23;1781513;80;21138;-52
2021/05/07 02:03:26;;;;;;;9.25;6.05;;;;;;;5.30;69.87;93956.95;1751146;80;21155;-52
2021/05/07 02:05:56;;;;;;;15.98;8.65;;;;;;;5.28;69.73;93948.41;1781364;79;21080;-51
2021/05/07 02:08:27;;;;;;;12.88;7.15;;;;;;;5.35;69.81;93945.50;1781535;80;21108;-53
2021/05/07 02:10:55;;;;;;;9.08;6.53;;;;;;;5.43;69.84;93947.43;1781582;80;21152;-53
2021/05/07 02:13:23;;;;;;;7.95;5.62;;;;;;;5.51;69.78;93950.11;1781541;80;21115;-51
2021/05/07 02:15:52;;;;;;;11.20;7.72;;;;;;;5.52;69.70;93938.77;1781611;80;22275;-51
2021/05/07 02:18:24;;;;;;;17.55;9.30;;;;;;;5.53;69.81;93936.20;1781432;80;21155;-53
2021/05/07 02:20:54;;;;;;;17.15;9.78;;;;;;;5.49;69.69;93926.59;1781493;80;21155;-50
2021/05/07 02:23:24;;;;;;;16.75;10.35;;;;;;;5.40;69.91;93926.48;1781528;80;21159;-52
2021/05/07 02:25:54;;;;;;;16.80;9.15;;;;;;;5.38;70.07;93930.25;1813592;79;21103;-52
2021/05/07 02:28:24;;;;;;;17.35;9.88;;;;;;;5.35;70.10;93949.59;1780098;80;21563;-52
2021/05/07 02:30:52;;;;;;;15.75;9.30;;;;;;;5.26;70.13;93948.08;1781445;80;21171;-53
2021/05/07 02:33:20;;;;;;;8.00;6.17;;;;;;;5.22;70.37;93948.04;1781482;80;21139;-53
2021/05/07 02:35:49;;;;;;;13.65;5.55;;;;;;;5.16;70.59;93947.02;1781495;80;21075;-52
2021/05/07 02:38:17;;;;;;;12.53;8.53;;;;;;;5.07;70.96;93946.89;1781533;80;21084;-52
2021/05/07 02:40:45;;;;;;;18.27;10.38;;;;;;;5.02;71.26;93946.06;1781926;79;21301;-53
2021/05/07 02:43:13;;;;;;;25.48;13.50;;;;;;;4.97;71.56;93941.73;1819552;78;21124;-52
2021/05/07 02:45:42;;;;;;;25.05;12.13;;;;;;;4.90;71.66;93937.23;1787254;79;21127;-51
2021/05/07 02:48:11;;;;;;;20.20;12.10;;;;;;;4.86;71.92;93935.21;1787389;80;21202;-50
2021/05/07 02:50:40;;;;;;;24.32;12.03;;;;;;;4.86;72.08;93947.47;1787326;80;21060;-51
2021/05/07 02:53:07;;;;;;;22.55;11.83;;;;;;;4.92;72.09;93939.52;1787275;80;21208;-55
2021/05/07 02:55:36;;;;;;;21.35;11.75;;;;;;;4.99;72.33;93944.18;1787228;80;21568;-58
2021/05/07 02:58:05;;;;;;;18.67;10.48;;;;;;;5.06;72.23;93956.27;1787262;80;21134;-58
2021/05/07 03:00:33;;;;;;;25.35;14.18;;;;;;;5.09;72.05;93955.98;1805507;79;21102;-59
2021/05/07 03:03:01;;;;;;;29.15;14.03;;;;;;;5.02;72.00;93943.34;1787298;80;21151;-58
2021/05/07 03:05:29;;;;;;;27.17;14.23;;;;;;;4.95;72.09;93947.60;1819478;78;23462;-58
2021/05/07 03:07:58;;;;;;;15.85;10.18;;;;;;;4.90;72.35;93944.63;1787252;79;21113;-58
2021/05/07 03:10:26;;;;;;;19.75;10.72;;;;;;;4.89;72.29;93937.07;1787450;80;21080;-58
2021/05/07 03:12:55;;;;;;;24.60;10.90;;;;;;;4.86;72.13;93935.80;1787378;80;21211;-56
2021/05/07 03:15:23;;;;;;;22.55;14.33;;;;;;;4.80;72.28;93930.09;1787328;80;21115;-52
2021/05/07 03:17:53;;;;;;;18.17;10.60;;;;;;;4.80;72.28;93926.02;1787270;80;21204;-52
2021/05/07 03:20:22;;;;;;;16.80;10.82;;;;;;;4.79;72.20;93927.21;1787193;80;21175;-51
2021/05/07 03:22:50;;;;;;;17.25;9.88;;;;;;;4.76;72.29;93926.71;1787340;79;21080;-52
2021/05/07 03:25:19;;;;;;;18.62;12.98;;;;;;;4.77;72.31;93924.77;1805465;79;21107;-52
2021/05/07 03:27:47;;;;;;;16.15;11.30;;;;;;;4.80;72.33;93921.17;1787287;80;21076;-52
2021/05/07 03:30:16;;;;;;;12.28;8.88;;;;;;;4.86;72.32;93921.59;1819562;78;21377;-52
2021/05/07 03:32:44;;;;;;;16.40;9.70;;;;;;;4.90;72.07;93916.80;1787218;80;21147;-53
2021/05/07 03:35:12;;;;;;;22.98;10.20;;;;;;;4.94;72.02;93914.73;1787228;80;21560;-53
2021/05/07 03:37:40;;;;;;;16.07;9.95;;;;;;;4.96;71.95;93911.59;1819451;78;21068;-53
2021/05/07 03:40:11;;;;;;;16.75;11.12;;;;;;;4.97;71.85;93917.20;1787247;80;21147;-51
2021/05/07 03:42:39;;;;;;;10.13;7.62;;;;;;;4.96;71.89;93915.06;1815073;78;22049;-51
2021/05/07 03:45:10;;;;;;;13.83;9.53;;;;;;;4.97;71.67;93904.94;1781371;80;21072;-52
2021/05/07 03:47:41;;;;;;;19.62;11.38;;;;;;;4.94;71.81;93897.02;1781608;80;21519;-52
2021/05/07 03:50:11;;;;;;;12.73;8.98;;;;;;;4.92;71.89;93892.61;1813534;79;21048;-53
2021/05/07 03:52:41;;;;;;;15.48;7.33;;;;;;;4.95;71.99;93904.00;1781584;79;21484;-53
2021/05/07 03:55:12;;;;;;;18.25;8.70;;;;;;;5.04;71.91;93900.65;1781439;80;21367;-52
2021/05/07 03:57:40;;;;;;;20.62;8.13;;;;;;;5.02;71.82;93894.28;1781415;80;21100;-51
2021/05/07 04:00:11;;;;;;;14.25;8.35;;;;;;;5.00;71.98;93896.65;1781420;79;21080;-51
2021/05/07 04:02:44;;;;;;;24.25;8.10;;;;;;;4.96;72.13;93898.72;1781400;80;21163;-51
2021/05/07 04:05:13;;;;;;;35.88;10.60;;;;;;;4.95;72.19;93900.53;1781411;79;21127;-52
2021/05/07 04:07:44;;;;;;;31.82;10.13;;;;;;;4.93;72.40;93898.22;1813466;79;21115;-52
2021/05/07 04:10:17;;;;;;;35.70;13.93;;;;;;;4.94;72.30;93892.19;1781416;80;21154;-51
2021/05/07 04:15:17;;;;;;;52.90;17.27;;;;;;;5.05;72.07;93889.91;1793918;80;20250;-53
2021/05/07 04:17:46;;;;;;;33.35;13.30;;;;;;;5.03;71.62;93877.31;1781407;80;21076;-52
2021/05/07 04:20:15;;;;;;;45.85;23.32;;;;;;;5.10;71.72;93877.88;1813423;79;21388;-53
2021/05/07 04:22:44;;;;;;;43.50;19.25;;;;;;;5.22;71.43;93885.33;1781377;80;21143;-52
2021/05/07 04:25:13;;;;;;;25.52;12.63;;;;;;;5.33;71.36;93886.55;1781418;80;21166;-55
2021/05/07 04:27:42;;;;;;;25.40;12.35;;;;;;;5.49;71.00;93886.46;1781371;80;21215;-53
2021/05/07 04:30:12;;;;;;;33.73;12.78;;;;;;;5.66;70.22;93881.66;1781510;80;21136;-54
2021/05/07 04:32:40;;;;;;;25.60;11.75;;;;;;;5.76;69.77;93883.30;1781574;79;22266;-52
2021/05/07 04:35:10;;;;;;;15.45;8.85;;;;;;;5.87;69.36;93870.11;1781399;80;21488;-52
2021/05/07 04:37:38;;;;;;;30.57;11.95;;;;;;;5.98;69.01;93880.09;1793922;80;21048;-52
2021/05/07 04:40:08;;;;;;;33.83;11.73;;;;;;;6.03;68.58;93878.95;1781342;80;21087;-53
2021/05/07 04:42:37;;;;;;;32.50;10.58;;;;;;;6.09;68.64;93865.48;1816848;78;21099;-52
2021/05/07 04:45:08;;;;;;;26.55;9.03;;;;;;;6.23;68.60;93875.36;1787264;80;21398;-53
2021/05/07 04:47:36;;;;;;;20.43;8.58;;;;;;;6.39;67.78;93876.59;1805427;79;21083;-52
2021/05/07 04:50:07;;;;;;;20.75;9.43;;;;;;;6.55;67.14;93867.46;1787227;80;21165;-52
2021/05/07 04:52:37;;;;;;;57.88;15.60;;;;;;;6.61;66.67;93850.66;1805438;79;21067;-54
2021/05/07 04:55:06;;;;;;;21.97;9.55;;;;;;;6.62;66.63;93849.44;1787230;80;21560;-52
2021/05/07 04:57:35;;;;;;;14.53;10.13;;;;;;;6.69;66.43;93860.15;1805475;79;21127;-52
2021/05/07 05:00:05;;;;;;;13.90;8.53;;;;;;;6.76;66.25;93848.95;1787174;80;21590;-53
2021/05/07 05:02:34;;;;;;;14.23;8.35;;;;;;;6.90;66.08;93856.04;1805556;79;21546;-53
2021/05/07 05:05:04;;;;;;;16.42;7.53;;;;;;;7.00;65.25;93859.59;1787176;80;21151;-52
2021/05/07 05:07:34;;;;;;;17.45;6.87;;;;;;;7.06;65.01;93851.00;1805390;79;21153;-53
2021/05/07 05:10:04;;;;;;;17.00;8.25;;;;;;;7.13;64.52;93849.52;1787280;80;22232;-54
2021/05/07 05:12:31;;;;;;;18.95;8.10;;;;;;;7.23;64.46;93856.59;1805310;79;21583;-51
2021/05/07 05:14:59;;;;;;;10.50;6.78;;;;;;;7.38;63.96;93852.09;1766623;80;21563;-53
2021/05/07 05:17:27;;;;;;;21.20;7.95;;;;;;;7.55;63.23;93854.02;1773432;81;21183;-53
2021/05/07 05:19:55;;;;;;;13.05;6.45;;;;;;;7.62;63.12;93861.94;1773265;81;21137;-52
2021/05/07 05:22:23;;;;;;;10.48;6.20;;;;;;;7.69;62.59;93850.12;1785476;79;21395;-55
2021/05/07 05:24:52;;;;;;;10.63;5.72;;;;;;;7.74;62.52;93849.52;1796578;78;21216;-52
2021/05/07 05:27:20;;;;;;;11.50;5.85;;;;;;;7.85;61.91;93846.39;1802107;78;21201;-52
2021/05/07 05:29:48;;;;;;;26.70;10.05;;;;;;;7.94;61.42;93836.23;1763939;79;21204;-53
2021/05/07 05:32:16;;;;;;;12.03;6.62;;;;;;;8.06;61.05;93844.17;1786908;79;21081;-54
2021/05/07 05:34:45;;;;;;;23.50;7.55;;;;;;;8.19;60.64;93841.49;1783047;79;21555;-55
2021/05/07 05:37:13;;;;;;;16.42;6.03;;;;;;;8.27;60.59;93840.59;1770778;79;21147;-54
2021/05/07 05:39:41;;;;;;;22.45;6.62;;;;;;;8.37;59.92;93856.59;1786202;79;21169;-54
2021/05/07 05:42:11;;;;;;;20.60;8.35;;;;;;;8.37;59.92;93842.90;1783307;78;21539;-53
2021/05/07 05:44:39;;;;;;;14.68;6.30;;;;;;;8.37;60.15;93830.56;1789017;78;21094;-56
2021/05/07 05:47:07;;;;;;;14.05;6.28;;;;;;;8.44;59.97;93838.48;1780954;78;21517;-56
2021/05/07 05:49:36;;;;;;;12.43;6.83;;;;;;;8.40;59.81;93838.50;1763960;79;21174;-57
2021/05/07 05:52:05;;;;;;;22.30;7.72;;;;;;;8.34;59.59;93810.93;1759131;79;22502;-54
2021/05/07 05:54:34;;;;;;;16.62;7.35;;;;;;;8.27;59.74;93799.50;1777940;78;21196;-56
2021/05/07 05:57:02;;;;;;;13.78;6.42;;;;;;;8.25;59.75;93799.94;1780695;78;21169;-56
2021/05/07 05:59:30;;;;;;;9.25;5.67;;;;;;;8.23;59.76;93798.27;1780601;78;22278;-56
2021/05/07 06:01:58;;;;;;;8.20;5.40;;;;;;;8.29;59.97;93796.44;1789597;78;21184;-54
2021/05/07 06:04:27;;;;;;;25.15;9.65;;;;;;;8.42;59.41;93781.25;1728578;80;21665;-54
2021/05/07 06:06:55;;;;;;;17.55;6.62;;;;;;;8.56;59.32;93791.59;1782080;78;21193;-56
2021/05/07 06:09:23;;;;;;;23.73;8.95;;;;;;;8.72;58.81;93800.28;1777231;78;21058;-56
2021/05/07 06:11:51;;;;;;;19.30;7.53;;;;;;;8.83;58.18;93781.36;1774464;78;21210;-51
2021/05/07 06:14:19;;;;;;;28.83;7.53;;;;;;;8.95;58.53;93785.94;1776659;78;21185;-55
2021/05/07 06:16:50;;;;;;;22.80;7.62;;;;;;;9.10;57.69;93785.45;1777775;78;21191;-57
2021/05/07 06:19:19;;;;;;;18.45;8.70;;;;;;;9.16;57.58;93789.09;1780502;78;21127;-55
2021/05/07 06:21:48;;;;;;;19.77;7.90;;;;;;;9.21;57.44;93780.25;1778544;78;21625;-55
2021/05/07 06:24:18;;;;;;;31.70;8.28;;;;;;;9.32;57.13;93776.40;1744508;79;22125;-57
2021/05/07 06:26:50;;;;;;;24.92;7.75;;;;;;;9.39;56.82;93760.96;1785216;78;21599;-52
2021/05/07 06:29:18;;;;;;;25.55;8.85;;;;;;;9.42;56.72;93760.80;1776715;78;21205;-56
2021/05/07 06:31:46;;;;;;;29.05;12.58;;;;;;;9.43;57.22;93765.70;1785027;78;21212;-58
2021/05/07 06:34:15;;;;;;;21.85;8.90;;;;;;;9.46;57.96;93756.53;1780362;79;21228;-53
2021/05/07 06:36:43;;;;;;;30.32;7.58;;;;;;;9.53;57.69;93753.44;1779665;78;22308;-55
2021/05/07 06:39:11;;;;;;;28.35;8.73;;;;;;;9.56;56.51;93744.27;1781026;79;21295;-52
2021/05/07 06:41:40;;;;;;;22.87;12.13;;;;;;;9.53;56.43;93752.07;1775933;78;21117;-54
2021/05/07 06:44:08;;;;;;;32.10;10.93;;;;;;;9.54;56.69;93757.11;1778184;79;22170;-56
2021/05/07 06:46:36;;;;;;;34.60;12.98;;;;;;;9.58;56.56;93755.58;1778269;78;21060;-56
2021/05/07 06:49:05;;;;;;;32.67;13.95;;;;;;;9.57;56.75;93758.14;1779489;79;21249;-54
2021/05/07 06:51:34;;;;;;;37.83;14.05;;;;;;;9.52;57.21;93755.44;1768303;79;21154;-52
2021/05/07 06:54:06;;;;;;;42.00;14.87;;;;;;;9.60;57.57;93768.23;1771735;79;21590;-51
2021/05/07 06:56:33;;;;;;;51.58;13.65;;;;;;;9.70;57.59;93755.96;1772274;79;21599;-56
2021/05/07 06:59:02;;;;;;;42.98;12.07;;;;;;;9.82;57.71;93752.25;1758163;79;21234;-55
2021/05/07 07:01:30;;;;;;;36.48;12.63;;;;;;;9.94;57.55;93763.61;1762111;79;22182;-53
2021/05/07 07:03:58;;;;;;;52.27;10.38;;;;;;;9.99;57.37;93764.36;1762719;80;21590;-56
2021/05/07 07:06:26;;;;;;;32.73;10.78;;;;;;;10.05;57.20;93759.77;1762523;80;21136;-53
2021/05/07 07:08:56;;;;;;;18.45;8.35;;;;;;;10.09;57.21;93754.25;1761773;80;21175;-54
2021/05/07 07:11:25;;;;;;;39.85;10.08;;;;;;;10.20;57.00;93752.35;1755053;80;21163;-54
2021/05/07 07:13:53;;;;;;;24.98;10.43;;;;;;;10.26;57.04;93749.09;1763447;80;22353;-53
2021/05/07 07:16:21;;;;;;;44.05;19.00;;;;;;;10.31;56.97;93747.09;1771073;80;21191;-54
2021/05/07 07:18:49;;;;;;;51.02;19.95;;;;;;;10.36;57.13;93745.06;1757673;80;21214;-52
2021/05/07 07:21:19;;;;;;;41.53;19.23;;;;;;;10.48;57.79;93736.56;1766751;80;21644;-56
2021/05/07 07:23:47;;;;;;;48.68;19.80;;;;;;;10.58;58.39;93729.00;1759598;80;21191;-56
2021/05/07 07:26:16;;;;;;;37.67;17.23;;;;;;;10.70;58.82;93712.23;1763415;80;23515;-54
2021/05/07 07:28:47;;;;;;;41.05;15.90;;;;;;;10.76;58.24;93716.59;1759805;80;21215;-54
2021/05/07 07:31:16;;;;;;;39.58;14.63;;;;;;;10.86;58.61;93709.80;1763373;80;21270;-53
2021/05/07 07:33:44;;;;;;;36.53;17.82;;;;;;;11.03;58.65;93717.72;1769081;80;21195;-50
2021/05/07 07:36:12;;;;;;;35.23;15.30;;;;;;;11.21;58.13;93718.13;1772765;80;21131;-51
2021/05/07 07:38:40;;;;;;;34.55;15.60;;;;;;;11.30;57.75;93714.66;1760240;79;21153;-51
2021/05/07 07:41:09;;;;;;;43.08;19.85;;;;;;;11.33;57.58;93725.34;1761065;80;21148;-54
2021/05/07 07:43:37;;;;;;;38.78;18.42;;;;;;;11.36;57.63;93712.75;1752396;80;21155;-52
2021/05/07 07:46:07;;;;;;;32.73;15.03;;;;;;;11.40;57.68;93711.95;1771349;79;21198;-54
2021/05/07 07:48:36;;;;;;;46.40;16.17;;;;;;;11.56;58.02;93729.36;1770082;80;21610;-55
2021/05/07 07:51:05;;;;;;;27.17;13.10;;;;;;;11.76;56.54;93741.06;1764893;80;21431;-56
2021/05/07 07:53:34;;;;;;;34.85;13.55;;;;;;;11.91;55.99;93745.93;1763553;80;21650;-60
2021/05/07 07:56:03;;;;;;;24.52;10.85;;;;;;;12.04;55.77;93737.47;1767258;80;21193;-54
2021/05/07 07:58:31;;;;;;;13.80;6.67;;;;;;;12.18;55.49;93753.20;1759349;80;21202;-56
2021/05/07 08:00:59;;;;;;;13.35;5.83;;;;;;;12.39;56.77;93747.84;1771318;80;21448;-53
2021/05/07 08:03:28;;;;;;;23.05;4.53;;;;;;;12.84;57.71;93737.45;1750595;80;21388;-58
2021/05/07 08:05:58;;;;;;;15.32;3.62;;;;;;;13.39;57.41;93740.79;1742700;80;21090;-56
2021/05/07 08:08:26;;;;;;;5.12;2.77;;;;;;;13.87;55.94;93734.77;1760953;80;21174;-54
2021/05/07 08:10:54;;;;;;;10.20;3.60;;;;;;;14.29;54.63;93741.11;1758722;80;21166;-53
2021/05/07 08:13:23;;;;;;;7.60;3.20;;;;;;;14.62;53.82;93732.98;1756620;80;21147;-54
2021/05/07 08:15:52;;;;;;;10.03;3.50;;;;;;;14.90;53.39;93735.97;1752156;80;22642;-54
2021/05/07 08:18:19;;;;;;;8.13;4.15;;;;;;;15.12;51.97;93736.03;1771381;80;21633;-54
2021/05/07 08:20:47;;;;;;;22.05;4.85;;;;;;;15.32;51.37;93737.23;1764011;80;21222;-53
2021/05/07 08:23:16;;;;;;;9.20;3.40;;;;;;;15.51;50.86;93741.03;1757154;80;21142;-55
2021/05/07 08:25:44;;;;;;;9.53;3.52;;;;;;;15.68;49.91;93754.27;1784178;79;21214;-54
2021/05/07 08:28:12;;;;;;;11.97;3.42;;;;;;;15.79;50.03;93739.04;1765837;81;21808;-54
2021/05/07 08:30:40;;;;;;;16.60;3.22;;;;;;;15.84;48.77;93745.20;1769659;80;21182;-54
2021/05/07 08:33:09;;;;;;;37.53;4.53;;;;;;;15.82;48.61;93740.80;1747674;81;21193;-55
2021/05/07 08:35:38;;;;;;;9.85;3.42;;;;;;;15.87;48.18;93722.65;1758898;81;21183;-56
2021/05/07 08:38:08;;;;;;;29.37;5.17;;;;;;;15.92;48.43;93728.81;1762484;81;21190;-53
2021/05/07 08:40:36;;;;;;;9.15;2.70;;;;;;;15.91;48.83;93737.75;1753080;81;22161;-54
2021/05/07 08:43:09;;;;;;;44.55;5.40;;;;;;;15.90;48.60;93731.34;1757032;79;21222;-54
2021/05/07 08:45:36;;;;;;;4.50;2.50;;;;;;;15.93;47.94;93728.94;1760722;79;21173;-54
2021/05/07 08:48:07;;;;;;;8.70;2.62;;;;;;;16.00;48.58;93725.02;1773973;79;21181;-56
2021/05/07 08:50:37;;;;;;;20.25;2.80;;;;;;;16.07;48.06;93727.27;1766823;79;21131;-53
2021/05/07 08:53:05;;;;;;;9.05;3.15;;;;;;;16.12;47.75;93743.16;1771200;79;21595;-54
2021/05/07 08:55:33;;;;;;;8.80;2.47;;;;;;;16.19;48.30;93731.55;1713479;81;21194;-54
2021/05/07 08:58:01;;;;;;;7.90;2.98;;;;;;;16.29;48.44;93741.11;1771125;79;21417;-57
2021/05/07 09:00:29;;;;;;;4.17;2.33;;;;;;;16.37;48.65;93714.39;1772329;79;21212;-55
2021/05/07 09:03:09;;;;;;;4.92;2.45;;;;;;;16.48;48.55;93717.11;1787247;79;21176;-56
2021/05/07 09:05:37;;;;;;;3.77;2.22;;;;;;;16.63;47.33;93701.68;1768473;79;21991;-55
2021/05/07 09:08:07;;;;;;;11.70;2.47;;;;;;;16.74;47.37;93700.88;1773685;79;21172;-56
2021/05/07 09:10:40;;;;;;;6.58;2.65;;;;;;;16.86;47.56;93699.53;1769188;79;21214;-52
2021/05/07 09:13:10;;;;;;;10.25;2.67;;;;;;;16.96;46.54;93703.55;1761050;80;21163;-66
2021/05/07 09:15:48;;;;;;;10.85;3.10;;;;;;;17.05;47.22;93692.11;1759329;81;21118;-55
2021/05/07 09:18:17;;;;;;;7.45;2.72;;;;;;;17.17;46.61;93694.95;1751764;79;22269;-55
2021/05/07 09:20:49;;;;;;;9.73;2.90;;;;;;;17.22;45.82;93698.33;1759456;79;21616;-56
2021/05/07 09:23:18;;;;;;;5.58;2.90;;;;;;;17.26;46.22;93694.66;1761885;79;21142;-56
2021/05/07 09:25:54;;;;;;;9.55;3.77;;;;;;;17.30;46.89;93697.92;1765712;79;22155;-54
2021/05/07 09:28:22;;;;;;;9.30;3.00;;;;;;;17.31;46.29;93696.64;1735871;79;21174;-56
2021/05/07 09:30:50;;;;;;;8.73;3.35;;;;;;;17.41;46.36;93693.69;1765100;79;22346;-55
2021/05/07 09:33:19;;;;;;;6.15;3.00;;;;;;;17.56;46.45;93693.47;1768212;79;21239;-56
2021/05/07 09:35:49;;;;;;;5.45;3.35;;;;;;;17.70;45.42;93683.23;1768511;79;21166;-55
2021/05/07 09:38:17;;;;;;;12.23;3.45;;;;;;;17.74;45.46;93687.25;1758726;79;21181;-55
2021/05/07 09:40:46;;;;;;;10.85;3.72;;;;;;;17.74;44.86;93679.53;1772149;79;21201;-53
2021/05/07 09:43:18;;;;;;;4.95;3.10;;;;;;;17.69;44.77;93678.95;1751617;80;21304;-56
2021/05/07 09:45:50;;;;;;;21.23;3.77;;;;;;;17.73;44.89;93689.92;1765363;79;21550;-57
2021/05/07 09:48:22;;;;;;;14.58;4.22;;;;;;;17.78;45.04;93688.34;1766143;79;21119;-53
2021/05/07 09:50:53;;;;;;;13.68;4.55;;;;;;;17.83;45.21;93684.13;1781272;79;21130;-54
2021/05/07 09:53:22;;;;;;;4.33;3.00;;;;;;;17.94;45.74;93686.82;1765316;79;21568;-57
2021/05/07 09:55:53;;;;;;;14.98;3.77;;;;;;;18.08;44.76;93687.08;1767859;79;21232;-54
2021/05/07 09:58:21;;;;;;;9.15;3.15;;;;;;;18.16;44.33;93685.87;1762325;81;21176;-54
2021/05/07 10:00:49;;;;;;;7.10;3.50;;;;;;;18.25;44.23;93695.37;1761947;79;21148;-55
2021/05/07 10:03:17;;;;;;;4.92;3.17;;;;;;;18.30;43.88;93698.75;1769787;79;21159;-58
2021/05/07 10:05:45;;;;;;;9.00;4.42;;;;;;;18.36;43.78;93709.84;1759153;80;21178;-52
2021/05/07 10:08:13;;;;;;;7.78;3.33;;;;;;;18.33;43.94;93708.88;1781323;79;22066;-55
2021/05/07 10:10:42;;;;;;;17.30;3.92;;;;;;;18.13;43.52;93703.59;1837517;78;21559;-54
2021/05/07 10:13:15;;;;;;;15.68;4.70;;;;;;;17.80;44.42;93718.55;1777797;79;21506;-54
2021/05/07 10:15:43;;;;;;;10.40;3.65;;;;;;;17.51;45.28;93715.75;1762898;80;21614;-55
2021/05/07 10:18:24;;;;;;;11.22;4.28;;;;;;;17.25;45.48;93714.01;1762167;80;21221;-54
2021/05/07 10:21:11;;;;;;;19.62;4.83;;;;;;;17.02;46.19;93722.33;1762274;81;21401;-55
2021/05/07 10:23:55;;;;;;;23.00;4.67;;;;;;;16.83;46.98;93726.34;1750073;82;21075;-54
2021/05/07 10:26:43;;;;;;;9.78;4.10;;;;;;;16.59;48.87;93726.81;1762371;81;21607;-57
2021/05/07 10:29:28;;;;;;;9.18;4.12;;;;;;;16.36;50.64;93735.09;1750253;82;21067;-54
2021/05/07 10:31:59;;;;;;;6.80;4.62;;;;;;;16.16;50.88;93735.97;1762376;81;21123;-55
2021/05/07 10:34:27;;;;;;;8.25;4.85;;;;;;;16.00;51.84;93736.73;1750131;82;21206;-56
2021/05/07 10:39:52;;;;;;;8.58;5.08;;;;;;;15.82;53.11;93729.70;1873460;75;22634;-56
2021/05/07 10:42:20;;;;;;;8.53;4.65;;;;;;;15.68;53.14;93732.09;1836008;76;21109;-54
2021/05/07 10:44:52;;;;;;;7.30;4.70;;;;;;;15.64;53.35;93728.05;1823349;78;21192;-56
2021/05/07 10:47:33;;;;;;;7.60;5.40;;;;;;;15.62;53.63;93729.96;1808156;79;20999;-53
2021/05/07 10:50:20;;;;;;;6.95;3.92;;;;;;;15.57;53.93;93737.63;1817535;78;21565;-53
2021/05/07 10:52:47;;;;;;;25.30;9.98;;;;;;;15.52;53.35;93731.45;1808368;78;21066;-54
2021/05/07 10:55:17;;;;;;;49.95;35.03;;;;;;;15.47;54.01;93724.52;1817206;78;21168;-56
2021/05/07 10:57:54;;;;;;;8.95;7.97;;;;;;;15.45;53.63;93727.80;1841232;77;22266;-55
2021/05/07 11:00:32;;;;;;;4.75;4.00;;;;;;;15.42;53.18;93737.13;1841197;77;21058;-55
2021/05/07 11:03:00;;;;;;;3.85;2.65;;;;;;;15.45;53.55;93738.13;1813527;78;21116;-56
2021/05/07 11:05:37;;;;;;;4.90;4.37;;;;;;;15.54;53.92;93730.31;1817683;77;21161;-57
2021/05/07 11:08:06;;;;;;;4.42;3.10;;;;;;;15.59;54.83;93744.83;1807968;79;21196;-58
2021/05/07 11:10:36;;;;;;;8.75;7.40;;;;;;;15.55;54.54;93760.94;1808087;78;21356;-55
2021/05/07 11:13:06;;;;;;;8.08;5.72;;;;;;;15.41;55.71;93747.32;1807565;78;21077;-54
2021/05/07 11:15:34;;;;;;;16.32;10.72;;;;;;;15.25;55.46;93740.47;1808211;78;21073;-53
2021/05/07 11:18:10;;;;;;;15.48;12.13;;;;;;;15.13;56.08;93738.92;1808221;79;21172;-56
2021/05/07 11:20:41;;;;;;;4.50;3.37;;;;;;;15.15;56.79;93737.80;1808342;78;21062;-57
2021/05/07 11:23:12;;;;;;;5.95;4.35;;;;;;;15.20;55.16;93750.89;1808431;79;21546;-57
2021/05/07 11:25:41;;;;;;;5.55;4.00;;;;;;;15.22;55.00;93744.86;1808386;79;21114;-55
2021/05/07 11:28:18;;;;;;;5.17;3.65;;;;;;;15.25;55.78;93744.63;1808304;79;21128;-54
2021/05/07 11:30:55;;;;;;;8.75;7.83;;;;;;;15.25;56.39;93743.24;1808285;78;21489;-56
2021/05/07 11:33:26;;;;;;;5.67;5.08;;;;;;;15.21;56.80;93746.13;1808472;78;21569;-53
2021/05/07 11:36:12;;;;;;;7.65;6.83;;;;;;;15.09;56.13;93740.42;1808313;78;21184;-59
2021/05/07 11:38:41;;;;;;;4.95;4.30;;;;;;;14.95;56.34;93744.92;1808134;79;21605;-55
2021/05/07 11:41:24;;;;;;;4.87;3.98;;;;;;;14.85;56.93;93745.00;1808295;78;21556;-54
2021/05/07 11:43:54;;;;;;;5.90;3.40;;;;;;;14.77;57.40;93743.20;1808254;79;21156;-54
2021/05/07 11:46:22;;;;;;;7.97;6.45;;;;;;;14.78;57.90;93748.26;1808401;79;21561;-54